Time;durP1;ratioP1;P1;durP2;ratioP2;P2;SDS_P1;SDS_P2;PMS_P1;PMS_P2;Temp;Humidity;BMP_temperature;BMP_pressure;BME280_temperature;BME280_humidity;BME280_pressure;Samples;Min_cycle;Max_cycle;Signal;HPM_P1;HPM_P2
2022/01/13 00:07:10;;;;;;;0.20;0.10;;;6.00;99.90;;;;;;25582597;23;20167;-68
2022/01/13 00:27:52;;;;;;;0.20;0.10;;;6.10;99.90;;;;;;25561704;23;20643;-68
2022/01/13 00:37:57;;;;;;;0.20;0.10;;;6.00;99.90;;;;;;25581437;23;20288;-69
2022/01/13 00:48:01;;;;;;;0.20;0.00;;;6.00;99.90;;;;;;25586875;23;20261;-68
2022/01/13 00:58:06;;;;;;;0.20;0.00;;;6.00;99.90;;;;;;25585805;23;20285;-68
2022/01/13 01:08:11;;;;;;;0.20;0.00;;;6.10;99.90;;;;;;25586622;23;20715;-68
2022/01/13 01:18:30;;;;;;;0.20;0.10;;;6.00;99.90;;;;;;25584877;23;20193;-68
2022/01/13 01:28:43;;;;;;;0.20;0.10;;;6.50;99.90;;;;;;25584279;23;20198;-68
2022/01/13 01:38:52;;;;;;;0.20;0.10;;;6.40;99.90;;;;;;25583606;23;20609;-68
2022/01/13 01:48:58;;;;;;;0.20;0.10;;;6.30;99.90;;;;;;25590875;23;20241;-68
2022/01/13 01:59:04;;;;;;;0.50;0.50;;;6.10;99.90;;;;;;25591409;23;20209;-67
2022/01/13 02:09:09;;;;;;;0.20;0.20;;;6.10;99.90;;;;;;25591739;23;20221;-67
2022/01/13 02:19:17;;;;;;;0.20;0.10;;;6.00;99.90;;;;;;25591490;23;20195;-68
2022/01/13 02:29:22;;;;;;;0.20;0.13;;;6.00;99.90;;;;;;25590970;23;20257;-68
2022/01/13 02:39:28;;;;;;;0.20;0.00;;;5.90;99.90;;;;;;25588552;23;20229;-71
2022/01/13 02:49:33;;;;;;;0.20;0.10;;;5.60;99.90;;;;;;25590611;23;20264;-72
2022/01/13 02:59:37;;;;;;;0.20;0.10;;;5.40;99.90;;;;;;25589094;23;20285;-67
2022/01/13 03:09:43;;;;;;;0.20;0.10;;;5.30;99.90;;;;;;25589278;23;20273;-67
2022/01/13 03:19:47;;;;;;;0.20;0.10;;;5.40;99.90;;;;;;25588975;23;20190;-67
2022/01/13 03:29:53;;;;;;;0.20;0.10;;;5.40;99.90;;;;;;25588561;23;20225;-67
2022/01/13 03:39:58;;;;;;;0.20;0.10;;;5.40;99.90;;;;;;25587391;23;20659;-69
2022/01/13 03:50:04;;;;;;;0.20;0.10;;;5.40;99.90;;;;;;25588053;23;20257;-67
2022/01/13 04:00:47;;;;;;;0.20;0.10;;;5.50;99.90;;;;;;25585770;23;20286;-66
2022/01/13 04:11:18;;;;;;;0.20;0.10;;;5.60;99.90;;;;;;25561523;23;20174;-66
2022/01/13 04:21:23;;;;;;;0.20;0.10;;;5.80;99.90;;;;;;25581973;23;20240;-65
2022/01/13 04:31:28;;;;;;;0.20;0.00;;;5.50;99.90;;;;;;25584612;23;20247;-64
2022/01/13 04:41:34;;;;;;;1.17;1.07;;;5.50;99.90;;;;;;25584798;23;20221;-73
2022/01/13 04:51:41;;;;;;;0.20;0.00;;;5.30;99.90;;;;;;25586021;23;20675;-73
2022/01/13 05:01:45;;;;;;;0.20;0.10;;;5.20;99.90;;;;;;25585043;23;20284;-73
2022/01/13 05:11:50;;;;;;;0.20;0.10;;;5.10;99.90;;;;;;25585159;23;20236;-74
2022/01/13 05:22:15;;;;;;;0.20;0.10;;;5.10;99.90;;;;;;25590637;23;20193;-76
2022/01/13 05:32:20;;;;;;;0.20;0.10;;;4.90;99.90;;;;;;25594002;23;20527;-74
2022/01/13 05:42:24;;;;;;;0.20;0.10;;;4.70;99.90;;;;;;25592338;23;20592;-75
2022/01/13 05:52:29;;;;;;;0.20;0.10;;;4.60;99.90;;;;;;25592905;23;20166;-74
2022/01/13 06:02:33;;;;;;;0.20;0.10;;;4.80;99.90;;;;;;25595148;23;20667;-75
2022/01/13 06:12:39;;;;;;;0.20;0.10;;;4.70;99.90;;;;;;25591107;23;20170;-77
2022/01/13 06:22:45;;;;;;;0.20;0.00;;;4.60;99.90;;;;;;25590222;23;20197;-69
2022/01/13 06:32:50;;;;;;;0.20;0.10;;;4.60;99.90;;;;;;25590121;23;20604;-68
2022/01/13 06:42:54;;;;;;;0.20;0.10;;;4.60;99.90;;;;;;25589390;23;20237;-69
2022/01/13 06:52:59;;;;;;;0.20;0.10;;;4.50;99.90;;;;;;25591193;23;20166;-69
2022/01/13 07:03:04;;;;;;;0.20;0.10;;;4.70;99.90;;;;;;25582859;23;20380;-70
2022/01/13 07:13:09;;;;;;;0.20;0.00;;;4.70;99.90;;;;;;25582046;23;20185;-68
2022/01/13 07:23:13;;;;;;;0.20;0.10;;;4.50;99.90;;;;;;25587463;23;20586;-68
2022/01/13 07:33:18;;;;;;;0.20;0.20;;;4.60;99.90;;;;;;25586347;23;20317;-68
2022/01/13 07:43:24;;;;;;;0.20;0.10;;;4.60;99.90;;;;;;25586498;23;20552;-68
2022/01/13 07:53:30;;;;;;;0.20;0.10;;;5.00;99.90;;;;;;25581044;23;20281;-69
2022/01/13 08:03:33;;;;;;;0.20;0.10;;;5.30;99.90;;;;;;25582824;23;20281;-69
2022/01/13 08:13:39;;;;;;;0.20;0.10;;;5.40;99.90;;;;;;25582323;23;20269;-68
2022/01/13 08:23:43;;;;;;;0.20;0.10;;;5.40;99.90;;;;;;25581017;23;20280;-75
2022/01/13 08:33:48;;;;;;;0.20;0.10;;;5.80;99.90;;;;;;25582601;23;20694;-75
2022/01/13 08:43:53;;;;;;;0.20;0.10;;;6.00;99.90;;;;;;25583384;23;20206;-67
2022/01/13 08:53:58;;;;;;;0.20;0.10;;;6.30;99.90;;;;;;25585797;23;20174;-65
2022/01/13 09:04:03;;;;;;;1.10;1.10;;;6.50;99.90;;;;;;25591838;23;20301;-67
2022/01/13 09:14:08;;;;;;;0.20;0.10;;;6.90;99.90;;;;;;25592631;23;20713;-66
2022/01/13 09:24:13;;;;;;;0.20;0.10;;;7.30;99.90;;;;;;25592878;23;20277;-65
2022/01/13 09:34:19;;;;;;;0.23;0.23;;;7.50;99.90;;;;;;25587396;23;20276;-65
2022/01/13 09:44:23;;;;;;;0.20;0.10;;;8.10;99.90;;;;;;25589963;23;20206;-65
2022/01/13 09:54:28;;;;;;;0.20;0.10;;;8.70;99.90;;;;;;25588245;23;20837;-69
2022/01/13 10:04:48;;;;;;;0.20;0.10;;;9.00;99.90;;;;;;25584884;23;20282;-67
2022/01/13 10:25:29;;;;;;;0.20;0.10;;;9.90;99.90;;;;;;25587704;23;20567;-66
2022/01/13 10:35:35;;;;;;;0.20;0.10;;;10.10;99.90;;;;;;25571412;23;20821;-67
2022/01/13 10:45:41;;;;;;;0.20;0.10;;;10.70;99.90;;;;;;25570445;23;20190;-67
2022/01/13 10:55:50;;;;;;;0.20;0.10;;;11.50;99.90;;;;;;25571598;23;20190;-66
2022/01/13 11:05:56;;;;;;;0.20;0.10;;;12.00;99.90;;;;;;25571966;23;20205;-66
2022/01/13 11:16:01;;;;;;;0.23;0.23;;;12.90;99.90;;;;;;25571407;23;20259;-67
2022/01/13 11:26:07;;;;;;;0.20;0.07;;;13.50;99.90;;;;;;25570141;23;20225;-67
2022/01/13 11:36:13;;;;;;;0.20;0.10;;;14.10;99.90;;;;;;25570848;23;20202;-68
2022/01/13 11:46:21;;;;;;;0.20;0.10;;;14.40;99.90;;;;;;25568250;23;20190;-70
2022/01/13 11:56:27;;;;;;;0.20;0.10;;;14.70;99.90;;;;;;25567970;23;20178;-69
2022/01/13 12:06:40;;;;;;;0.20;0.10;;;14.80;99.90;;;;;;25566295;23;20198;-69
2022/01/13 12:16:57;;;;;;;0.20;0.10;;;15.30;99.90;;;;;;25563242;23;20261;-67
2022/01/13 12:27:05;;;;;;;0.40;0.40;;;15.80;99.90;;;;;;25563415;23;20198;-68
2022/01/13 12:37:31;;;;;;;0.30;0.30;;;16.80;99.90;;;;;;25564428;23;20762;-67
2022/01/13 12:47:35;;;;;;;0.20;0.10;;;16.80;99.90;;;;;;25569136;23;20170;-68
2022/01/13 12:57:52;;;;;;;0.20;0.03;;;17.20;99.90;;;;;;25568990;23;20742;-74
2022/01/13 13:07:56;;;;;;;0.20;0.10;;;17.10;99.90;;;;;;25568243;23;20181;-72
2022/01/13 13:18:01;;;;;;;0.20;0.10;;;17.50;99.90;;;;;;25567635;23;20201;-73
2022/01/13 13:28:20;;;;;;;0.30;0.27;;;17.20;99.90;;;;;;25561943;23;20274;-73
2022/01/13 13:38:25;;;;;;;0.20;0.10;;;17.10;99.90;;;;;;25559250;23;20697;-72
2022/01/13 13:48:29;;;;;;;0.20;0.10;;;16.90;99.90;;;;;;25573883;23;20184;-73
2022/01/13 13:58:52;;;;;;;0.20;0.10;;;17.10;99.90;;;;;;25573800;23;20288;-67
2022/01/13 14:08:57;;;;;;;0.20;0.10;;;17.30;99.90;;;;;;25573943;23;20197;-66
2022/01/13 14:19:10;;;;;;;0.20;0.00;;;17.80;99.90;;;;;;25572263;23;20505;-67
2022/01/13 14:29:22;;;;;;;0.20;0.10;;;18.10;99.90;;;;;;25573701;23;20170;-68
2022/01/13 14:39:27;;;;;;;2.73;2.30;;;18.20;99.90;;;;;;25572428;23;20264;-67
2022/01/13 14:49:33;;;;;;;0.20;0.10;;;18.40;99.90;;;;;;25571838;23;20178;-73
2022/01/13 14:59:40;;;;;;;0.40;0.40;;;18.00;99.90;;;;;;25567823;23;20202;-69
2022/01/13 15:09:44;;;;;;;2.17;0.73;;;17.20;99.90;;;;;;25572969;23;20556;-74
2022/01/13 15:19:51;;;;;;;0.20;0.00;;;16.60;99.90;;;;;;25571599;23;20258;-73
2022/01/13 15:29:55;;;;;;;0.20;0.10;;;16.80;99.90;;;;;;25569652;23;20239;-73
2022/01/13 15:40:00;;;;;;;0.20;0.10;;;16.90;99.90;;;;;;25566191;23;20206;-72
2022/01/13 15:50:05;;;;;;;0.20;0.10;;;16.90;99.90;;;;;;25567676;23;20189;-67
2022/01/13 16:00:14;;;;;;;0.20;0.00;;;16.00;99.90;;;;;;25569217;23;20294;-67
2022/01/13 16:10:18;;;;;;;0.20;0.10;;;15.10;99.90;;;;;;25570038;23;20274;-66
2022/01/13 16:20:29;;;;;;;0.20;0.10;;;13.40;99.90;;;;;;25567075;23;20190;-67
2022/01/13 16:30:34;;;;;;;0.20;0.10;;;11.90;99.90;;;;;;25564364;23;20591;-67
2022/01/13 16:40:39;;;;;;;5.03;4.77;;;11.40;99.90;;;;;;25568194;23;20264;-68
2022/01/13 16:50:44;;;;;;;0.20;0.20;;;11.00;99.90;;;;;;25578437;23;20180;-65
2022/01/13 17:00:51;;;;;;;0.20;0.10;;;10.40;99.90;;;;;;25566544;23;20198;-66
2022/01/13 17:10:55;;;;;;;0.20;0.00;;;9.80;99.90;;;;;;25565423;23;20174;-65
2022/01/13 17:21:01;;;;;;;0.20;0.10;;;9.30;99.90;;;;;;25572883;23;20435;-66
2022/01/13 17:31:08;;;;;;;2.53;2.33;;;8.90;99.90;;;;;;25571562;23;20212;-65
2022/01/13 17:41:15;;;;;;;0.20;0.10;;;8.90;99.90;;;;;;25571649;23;20198;-65
2022/01/13 17:51:20;;;;;;;0.20;0.10;;;8.10;99.90;;;;;;25576972;23;20269;-65
2022/01/13 18:01:25;;;;;;;0.20;0.10;;;7.70;99.90;;;;;;25587835;23;20194;-69
2022/01/13 18:11:33;;;;;;;0.20;0.10;;;7.70;99.90;;;;;;25589472;23;20560;-70
2022/01/13 18:21:39;;;;;;;0.20;0.13;;;7.40;99.90;;;;;;25585685;23;20205;-69
2022/01/13 18:31:44;;;;;;;1.67;1.57;;;7.30;99.90;;;;;;25586517;23;20719;-69
2022/01/13 18:41:50;;;;;;;2.77;1.70;;;7.30;99.90;;;;;;25587247;23;20186;-68
2022/01/13 18:51:55;;;;;;;0.20;0.10;;;7.50;99.90;;;;;;25588251;23;20170;-70
2022/01/13 19:02:00;;;;;;;0.20;0.10;;;7.40;99.90;;;;;;25586193;23;20232;-68
2022/01/13 19:12:05;;;;;;;0.20;0.10;;;7.60;99.90;;;;;;25579948;23;20496;-67
2022/01/13 19:22:10;;;;;;;0.20;0.10;;;7.90;99.90;;;;;;25578759;23;20221;-69
2022/01/13 19:32:14;;;;;;;0.30;0.30;;;7.80;99.90;;;;;;25579371;23;20211;-65
2022/01/13 19:42:20;;;;;;;0.20;0.10;;;7.90;99.90;;;;;;25579274;23;20221;-65
2022/01/13 19:52:24;;;;;;;0.20;0.20;;;7.70;99.90;;;;;;25578560;23;20194;-67
2022/01/13 20:02:29;;;;;;;0.20;0.10;;;7.40;99.90;;;;;;25578491;23;20285;-65
2022/01/13 20:12:35;;;;;;;0.20;0.10;;;7.60;99.90;;;;;;25579160;23;20233;-65
2022/01/13 20:22:40;;;;;;;0.20;0.10;;;7.50;99.90;;;;;;25581093;23;20273;-65
2022/01/13 20:32:45;;;;;;;0.20;0.10;;;7.10;99.90;;;;;;25578731;23;20304;-66
2022/01/13 20:43:06;;;;;;;0.20;0.20;;;7.00;99.90;;;;;;25580458;23;20197;-66
2022/01/13 20:53:10;;;;;;;0.20;0.10;;;7.20;99.90;;;;;;25579942;23;20202;-65
2022/01/13 21:03:15;;;;;;;2.17;2.00;;;7.20;99.90;;;;;;25579474;23;20292;-65
2022/01/13 21:13:19;;;;;;;0.33;0.33;;;7.10;99.90;;;;;;25577128;23;20208;-66
2022/01/13 21:23:24;;;;;;;0.20;0.10;;;6.80;99.90;;;;;;25580689;23;20282;-65
2022/01/13 21:33:28;;;;;;;0.20;0.10;;;6.60;99.90;;;;;;25578592;23;20352;-64
2022/01/13 21:43:53;;;;;;;0.20;0.10;;;6.50;99.90;;;;;;25579307;23;20186;-64
2022/01/13 21:53:57;;;;;;;0.20;0.10;;;6.40;99.90;;;;;;25580699;23;20209;-65
2022/01/13 22:04:03;;;;;;;0.20;0.10;;;6.90;99.90;;;;;;25588064;23;20198;-66
2022/01/13 22:14:06;;;;;;;0.20;0.10;;;7.10;99.90;;;;;;25589683;23;20198;-66
2022/01/13 22:24:11;;;;;;;0.20;0.10;;;7.20;99.90;;;;;;25590258;23;20273;-64
2022/01/13 22:34:15;;;;;;;0.20;0.10;;;7.10;99.90;;;;;;25590160;23;20202;-76
2022/01/13 22:44:20;;;;;;;0.20;0.10;;;6.90;99.90;;;;;;25589929;23;20635;-76
2022/01/13 22:54:24;;;;;;;0.20;0.10;;;6.90;99.90;;;;;;25589184;23;20254;-66
2022/01/13 23:04:29;;;;;;;0.20;0.10;;;6.80;99.90;;;;;;25588488;23;20222;-70
2022/01/13 23:14:45;;;;;;;0.20;0.10;;;6.30;99.90;;;;;;25586813;23;20205;-70
2022/01/13 23:24:51;;;;;;;0.20;0.10;;;6.10;99.90;;;;;;25588595;23;20217;-70
2022/01/13 23:34:55;;;;;;;0.20;0.10;;;6.20;99.90;;;;;;25587369;23;20289;-70
2022/01/13 23:45:00;;;;;;;0.70;0.70;;;6.40;99.90;;;;;;25585901;23;20728;-64
2022/01/13 23:55:05;;;;;;;0.20;0.10;;;6.60;99.90;;;;;;25587846;23;20194;-65
